sensor_id;sensor_type;location;lat;lon;timestamp;temperature;humidity
70830;SHT30;58451;51.550;7.208;2024-01-15T00:01:23;1.58;86.03
70830;SHT30;58451;51.550;7.208;2024-01-15T00:02:55;1.59;86.03
70830;SHT30;58451;51.550;7.208;2024-01-15T00:04:26;1.61;86.08
70830;SHT30;58451;51.550;7.208;2024-01-15T00:05:57;1.62;86.07
70830;SHT30;58451;51.550;7.208;2024-01-15T00:07:28;1.62;86.13
70830;SHT30;58451;51.550;7.208;2024-01-15T00:09:01;1.63;86.10
70830;SHT30;58451;51.550;7.208;2024-01-15T00:10:32;1.63;86.10
70830;SHT30;58451;51.550;7.208;2024-01-15T00:12:04;1.63;86.20
70830;SHT30;58451;51.550;7.208;2024-01-15T00:13:36;1.64;86.17
70830;SHT30;58451;51.550;7.208;2024-01-15T00:15:07;1.64;86.12
70830;SHT30;58451;51.550;7.208;2024-01-15T00:16:39;1.65;86.12
70830;SHT30;58451;51.550;7.208;2024-01-15T00:18:11;1.68;86.12
70830;SHT30;58451;51.550;7.208;2024-01-15T00:19:43;1.68;86.10
70830;SHT30;58451;51.550;7.208;2024-01-15T00:21:14;1.70;86.15
70830;SHT30;58451;51.550;7.208;2024-01-15T00:22:45;1.69;86.17
70830;SHT30;58451;51.550;7.208;2024-01-15T00:24:16;1.71;86.20
70830;SHT30;58451;51.550;7.208;2024-01-15T00:25:48;1.71;86.17
70830;SHT30;58451;51.550;7.208;2024-01-15T00:27:19;1.70;86.20
70830;SHT30;58451;51.550;7.208;2024-01-15T00:28:50;1.72;86.18
70830;SHT30;58451;51.550;7.208;2024-01-15T00:30:21;1.73;86.20
70830;SHT30;58451;51.550;7.208;2024-01-15T00:31:53;1.74;86.20
70830;SHT30;58451;51.550;7.208;2024-01-15T00:33:24;1.75;86.20
70830;SHT30;58451;51.550;7.208;2024-01-15T00:34:55;1.75;86.18
70830;SHT30;58451;51.550;7.208;2024-01-15T00:36:26;1.76;86.13
70830;SHT30;58451;51.550;7.208;2024-01-15T00:37:58;1.79;86.13
70830;SHT30;58451;51.550;7.208;2024-01-15T00:39:29;1.77;86.13
70830;SHT30;58451;51.550;7.208;2024-01-15T00:41:01;1.76;86.20
70830;SHT30;58451;51.550;7.208;2024-01-15T00:42:33;1.78;86.17
70830;SHT30;58451;51.550;7.208;2024-01-15T00:44:05;1.77;86.13
70830;SHT30;58451;51.550;7.208;2024-01-15T00:45:37;1.78;86.13
70830;SHT30;58451;51.550;7.208;2024-01-15T00:47:09;1.79;86.12
70830;SHT30;58451;51.550;7.208;2024-01-15T00:48:41;1.82;86.10
70830;SHT30;58451;51.550;7.208;2024-01-15T00:50:12;1.83;86.10
70830;SHT30;58451;51.550;7.208;2024-01-15T00:51:43;1.83;86.10
70830;SHT30;58451;51.550;7.208;2024-01-15T00:53:14;1.83;86.10
70830;SHT30;58451;51.550;7.208;2024-01-15T00:54:46;1.84;86.10
70830;SHT30;58451;51.550;7.208;2024-01-15T00:56:17;1.84;86.10
70830;SHT30;58451;51.550;7.208;2024-01-15T00:57:48;1.84;86.10
70830;SHT30;58451;51.550;7.208;2024-01-15T00:59:20;1.85;86.10
70830;SHT30;58451;51.550;7.208;2024-01-15T01:00:51;1.85;86.10
70830;SHT30;58451;51.550;7.208;2024-01-15T01:02:23;1.84;86.10
70830;SHT30;58451;51.550;7.208;2024-01-15T01:03:54;1.85;86.10
70830;SHT30;58451;51.550;7.208;2024-01-15T01:05:26;1.86;86.10
70830;SHT30;58451;51.550;7.208;2024-01-15T01:06:57;1.87;86.08
70830;SHT30;58451;51.550;7.208;2024-01-15T01:08:28;1.89;86.07
70830;SHT30;58451;51.550;7.208;2024-01-15T01:09:59;1.87;86.08
70830;SHT30;58451;51.550;7.208;2024-01-15T01:11:30;1.89;86.08
70830;SHT30;58451;51.550;7.208;2024-01-15T01:13:02;1.88;86.07
70830;SHT30;58451;51.550;7.208;2024-01-15T01:14:33;1.90;86.02
70830;SHT30;58451;51.550;7.208;2024-01-15T01:16:04;1.91;86.03
70830;SHT30;58451;51.550;7.208;2024-01-15T01:17:36;1.92;86.03
70830;SHT30;58451;51.550;7.208;2024-01-15T01:19:07;1.91;86.00
70830;SHT30;58451;51.550;7.208;2024-01-15T01:20:39;1.91;86.00
70830;SHT30;58451;51.550;7.208;2024-01-15T01:22:10;1.92;86.00
70830;SHT30;58451;51.550;7.208;2024-01-15T01:23:41;1.90;86.00
70830;SHT30;58451;51.550;7.208;2024-01-15T01:25:12;1.90;86.00
70830;SHT30;58451;51.550;7.208;2024-01-15T01:26:44;1.91;86.00
70830;SHT30;58451;51.550;7.208;2024-01-15T01:28:17;1.92;85.98
70830;SHT30;58451;51.550;7.208;2024-01-15T01:29:48;1.93;85.98
70830;SHT30;58451;51.550;7.208;2024-01-15T01:31:19;1.93;85.97
70830;SHT30;58451;51.550;7.208;2024-01-15T01:32:53;1.93;85.95
70830;SHT30;58451;51.550;7.208;2024-01-15T01:34:24;1.93;85.95
70830;SHT30;58451;51.550;7.208;2024-01-15T01:35:56;1.92;85.93
70830;SHT30;58451;51.550;7.208;2024-01-15T01:37:27;1.93;85.93
70830;SHT30;58451;51.550;7.208;2024-01-15T01:38:58;1.93;85.90
70830;SHT30;58451;51.550;7.208;2024-01-15T01:40:29;1.94;85.90
70830;SHT30;58451;51.550;7.208;2024-01-15T01:42:01;1.94;85.90
70830;SHT30;58451;51.550;7.208;2024-01-15T01:43:32;1.95;85.90
70830;SHT30;58451;51.550;7.208;2024-01-15T01:45:04;1.95;85.88
70830;SHT30;58451;51.550;7.208;2024-01-15T01:46:36;1.95;85.80
70830;SHT30;58451;51.550;7.208;2024-01-15T01:48:12;1.94;85.80
70830;SHT30;58451;51.550;7.208;2024-01-15T01:49:44;1.94;85.80
70830;SHT30;58451;51.550;7.208;2024-01-15T01:51:17;1.95;85.80
70830;SHT30;58451;51.550;7.208;2024-01-15T01:52:49;1.95;85.78
70830;SHT30;58451;51.550;7.208;2024-01-15T01:54:21;1.95;85.77
70830;SHT30;58451;51.550;7.208;2024-01-15T01:55:54;1.92;85.72
70830;SHT30;58451;51.550;7.208;2024-01-15T01:57:28;1.94;85.72
70830;SHT30;58451;51.550;7.208;2024-01-15T01:59:01;1.94;85.70
70830;SHT30;58451;51.550;7.208;2024-01-15T02:00:35;1.93;85.70
70830;SHT30;58451;51.550;7.208;2024-01-15T02:02:07;1.93;85.70
70830;SHT30;58451;51.550;7.208;2024-01-15T02:03:39;1.93;85.70
70830;SHT30;58451;51.550;7.208;2024-01-15T02:05:12;1.94;85.70
70830;SHT30;58451;51.550;7.208;2024-01-15T02:06:48;1.92;85.68
70830;SHT30;58451;51.550;7.208;2024-01-15T02:08:21;1.94;85.68
70830;SHT30;58451;51.550;7.208;2024-01-15T02:09:52;1.94;85.68
70830;SHT30;58451;51.550;7.208;2024-01-15T02:11:23;1.93;85.70
70830;SHT30;58451;51.550;7.208;2024-01-15T02:12:55;1.92;85.70
70830;SHT30;58451;51.550;7.208;2024-01-15T02:14:26;1.92;85.68
70830;SHT30;58451;51.550;7.208;2024-01-15T02:15:57;1.92;85.67
70830;SHT30;58451;51.550;7.208;2024-01-15T02:17:28;1.94;85.65
70830;SHT30;58451;51.550;7.208;2024-01-15T02:19:00;1.96;85.65
70830;SHT30;58451;51.550;7.208;2024-01-15T02:20:31;1.94;85.62
70830;SHT30;58451;51.550;7.208;2024-01-15T02:22:04;1.95;85.60
70830;SHT30;58451;51.550;7.208;2024-01-15T02:23:35;1.96;85.60
70830;SHT30;58451;51.550;7.208;2024-01-15T02:25:06;1.95;85.60
70830;SHT30;58451;51.550;7.208;2024-01-15T02:26:37;1.96;85.58
70830;SHT30;58451;51.550;7.208;2024-01-15T02:28:09;1.96;85.50
70830;SHT30;58451;51.550;7.208;2024-01-15T02:29:44;1.95;85.50
70830;SHT30;58451;51.550;7.208;2024-01-15T02:31:15;1.96;85.50
70830;SHT30;58451;51.550;7.208;2024-01-15T02:32:47;1.97;85.50
70830;SHT30;58451;51.550;7.208;2024-01-15T02:34:18;1.98;85.48
70830;SHT30;58451;51.550;7.208;2024-01-15T02:35:49;1.98;85.43
70830;SHT30;58451;51.550;7.208;2024-01-15T02:37:21;1.97;85.40
70830;SHT30;58451;51.550;7.208;2024-01-15T02:38:52;1.96;85.37
70830;SHT30;58451;51.550;7.208;2024-01-15T02:40:23;1.97;85.38
70830;SHT30;58451;51.550;7.208;2024-01-15T02:41:54;1.97;85.35
70830;SHT30;58451;51.550;7.208;2024-01-15T02:43:28;1.97;85.35
70830;SHT30;58451;51.550;7.208;2024-01-15T02:44:59;1.97;85.35
70830;SHT30;58451;51.550;7.208;2024-01-15T02:46:30;1.97;85.30
70830;SHT30;58451;51.550;7.208;2024-01-15T02:48:01;1.98;85.30
70830;SHT30;58451;51.550;7.208;2024-01-15T02:49:33;1.96;85.25
70830;SHT30;58451;51.550;7.208;2024-01-15T02:51:04;1.93;85.05
70830;SHT30;58451;51.550;7.208;2024-01-15T02:52:36;1.94;85.08
70830;SHT30;58451;51.550;7.208;2024-01-15T02:54:07;1.96;85.10
70830;SHT30;58451;51.550;7.208;2024-01-15T02:55:38;1.96;85.10
70830;SHT30;58451;51.550;7.208;2024-01-15T02:57:09;1.96;85.10
70830;SHT30;58451;51.550;7.208;2024-01-15T02:58:40;1.97;85.10
70830;SHT30;58451;51.550;7.208;2024-01-15T03:00:12;1.98;85.10
70830;SHT30;58451;51.550;7.208;2024-01-15T03:01:43;1.98;85.10
70830;SHT30;58451;51.550;7.208;2024-01-15T03:03:15;1.98;85.05
70830;SHT30;58451;51.550;7.208;2024-01-15T03:04:46;1.98;85.02
70830;SHT30;58451;51.550;7.208;2024-01-15T03:06:17;1.96;85.00
70830;SHT30;58451;51.550;7.208;2024-01-15T03:07:48;1.97;85.00
70830;SHT30;58451;51.550;7.208;2024-01-15T03:09:19;1.96;84.98
70830;SHT30;58451;51.550;7.208;2024-01-15T03:10:50;1.95;84.93
70830;SHT30;58451;51.550;7.208;2024-01-15T03:12:21;1.94;84.90
70830;SHT30;58451;51.550;7.208;2024-01-15T03:13:52;1.94;84.87
70830;SHT30;58451;51.550;7.208;2024-01-15T03:15:25;1.96;84.93
70830;SHT30;58451;51.550;7.208;2024-01-15T03:16:56;1.97;84.92
70830;SHT30;58451;51.550;7.208;2024-01-15T03:18:27;1.97;84.95
70830;SHT30;58451;51.550;7.208;2024-01-15T03:19:59;1.97;84.92
70830;SHT30;58451;51.550;7.208;2024-01-15T03:21:31;1.96;84.90
70830;SHT30;58451;51.550;7.208;2024-01-15T03:23:02;1.96;84.92
70830;SHT30;58451;51.550;7.208;2024-01-15T03:24:33;1.96;84.92
70830;SHT30;58451;51.550;7.208;2024-01-15T03:26:05;1.97;84.92
70830;SHT30;58451;51.550;7.208;2024-01-15T03:27:36;1.99;84.95
70830;SHT30;58451;51.550;7.208;2024-01-15T03:29:08;2.00;85.00
70830;SHT30;58451;51.550;7.208;2024-01-15T03:30:39;2.01;84.97
70830;SHT30;58451;51.550;7.208;2024-01-15T03:32:10;2.01;85.00
70830;SHT30;58451;51.550;7.208;2024-01-15T03:33:41;2.02;84.93
70830;SHT30;58451;51.550;7.208;2024-01-15T03:35:13;2.01;84.88
70830;SHT30;58451;51.550;7.208;2024-01-15T03:36:44;2.01;84.95
70830;SHT30;58451;51.550;7.208;2024-01-15T03:38:15;2.02;84.95
70830;SHT30;58451;51.550;7.208;2024-01-15T03:39:46;2.02;84.93
70830;SHT30;58451;51.550;7.208;2024-01-15T03:41:18;2.02;84.90
70830;SHT30;58451;51.550;7.208;2024-01-15T03:42:49;2.03;84.95
70830;SHT30;58451;51.550;7.208;2024-01-15T03:44:20;2.03;84.93
70830;SHT30;58451;51.550;7.208;2024-01-15T03:45:51;2.06;84.98
70830;SHT30;58451;51.550;7.208;2024-01-15T03:47:23;2.06;84.97
70830;SHT30;58451;51.550;7.208;2024-01-15T03:48:55;2.06;84.92
70830;SHT30;58451;51.550;7.208;2024-01-15T03:50:26;2.06;84.90
70830;SHT30;58451;51.550;7.208;2024-01-15T03:51:57;2.07;84.85
70830;SHT30;58451;51.550;7.208;2024-01-15T03:53:28;2.06;84.80
70830;SHT30;58451;51.550;7.208;2024-01-15T03:54:59;2.06;84.73
70830;SHT30;58451;51.550;7.208;2024-01-15T03:56:33;2.06;84.60
70830;SHT30;58451;51.550;7.208;2024-01-15T03:58:04;2.08;84.57
70830;SHT30;58451;51.550;7.208;2024-01-15T03:59:35;2.09;84.60
70830;SHT30;58451;51.550;7.208;2024-01-15T04:01:09;2.10;84.50
70830;SHT30;58451;51.550;7.208;2024-01-15T04:02:41;2.13;84.53
70830;SHT30;58451;51.550;7.208;2024-01-15T04:04:12;2.13;84.52
70830;SHT30;58451;51.550;7.208;2024-01-15T04:05:48;2.15;84.48
70830;SHT30;58451;51.550;7.208;2024-01-15T04:07:19;2.13;84.40
70830;SHT30;58451;51.550;7.208;2024-01-15T04:08:50;2.14;84.37
70830;SHT30;58451;51.550;7.208;2024-01-15T04:10:21;2.13;84.28
70830;SHT30;58451;51.550;7.208;2024-01-15T04:11:52;2.11;84.23
70830;SHT30;58451;51.550;7.208;2024-01-15T04:13:23;2.10;84.22
70830;SHT30;58451;51.550;7.208;2024-01-15T04:14:56;2.10;84.13
70830;SHT30;58451;51.550;7.208;2024-01-15T04:16:27;2.10;84.18
70830;SHT30;58451;51.550;7.208;2024-01-15T04:17:58;2.11;84.20
70830;SHT30;58451;51.550;7.208;2024-01-15T04:19:31;2.11;84.22
70830;SHT30;58451;51.550;7.208;2024-01-15T04:21:04;2.09;84.12
70830;SHT30;58451;51.550;7.208;2024-01-15T04:22:36;2.09;84.17
70830;SHT30;58451;51.550;7.208;2024-01-15T04:24:08;2.10;84.12
70830;SHT30;58451;51.550;7.208;2024-01-15T04:25:39;2.09;84.17
70830;SHT30;58451;51.550;7.208;2024-01-15T04:27:13;2.08;84.10
70830;SHT30;58451;51.550;7.208;2024-01-15T04:28:45;2.10;84.15
70830;SHT30;58451;51.550;7.208;2024-01-15T04:30:16;2.09;84.17
70830;SHT30;58451;51.550;7.208;2024-01-15T04:31:47;2.09;84.10
70830;SHT30;58451;51.550;7.208;2024-01-15T04:33:18;2.09;84.15
70830;SHT30;58451;51.550;7.208;2024-01-15T04:34:50;2.10;84.17
70830;SHT30;58451;51.550;7.208;2024-01-15T04:36:21;2.10;84.18
70830;SHT30;58451;51.550;7.208;2024-01-15T04:37:52;2.10;84.18
70830;SHT30;58451;51.550;7.208;2024-01-15T04:39:23;2.10;84.18
70830;SHT30;58451;51.550;7.208;2024-01-15T04:40:55;2.11;84.10
70830;SHT30;58451;51.550;7.208;2024-01-15T04:42:28;2.13;84.20
70830;SHT30;58451;51.550;7.208;2024-01-15T04:44:00;2.13;84.20
70830;SHT30;58451;51.550;7.208;2024-01-15T04:45:31;2.15;84.22
70830;SHT30;58451;51.550;7.208;2024-01-15T04:47:03;2.15;84.18
70830;SHT30;58451;51.550;7.208;2024-01-15T04:48:34;2.14;84.10
70830;SHT30;58451;51.550;7.208;2024-01-15T04:50:06;2.14;84.07
70830;SHT30;58451;51.550;7.208;2024-01-15T04:51:37;2.14;84.10
70830;SHT30;58451;51.550;7.208;2024-01-15T04:53:08;2.15;84.10
70830;SHT30;58451;51.550;7.208;2024-01-15T04:54:43;2.16;84.12
70830;SHT30;58451;51.550;7.208;2024-01-15T04:56:15;2.16;84.00
70830;SHT30;58451;51.550;7.208;2024-01-15T04:57:46;2.19;84.07
70830;SHT30;58451;51.550;7.208;2024-01-15T04:59:18;2.20;83.95
70830;SHT30;58451;51.550;7.208;2024-01-15T05:00:49;2.20;83.90
70830;SHT30;58451;51.550;7.208;2024-01-15T05:02:20;2.20;83.92
70830;SHT30;58451;51.550;7.208;2024-01-15T05:03:51;2.20;83.90
70830;SHT30;58451;51.550;7.208;2024-01-15T05:05:23;2.20;83.95
70830;SHT30;58451;51.550;7.208;2024-01-15T05:06:54;2.20;83.90
70830;SHT30;58451;51.550;7.208;2024-01-15T05:08:26;2.19;83.92
70830;SHT30;58451;51.550;7.208;2024-01-15T05:09:57;2.19;83.93
70830;SHT30;58451;51.550;7.208;2024-01-15T05:11:28;2.17;83.88
70830;SHT30;58451;51.550;7.208;2024-01-15T05:13:00;2.17;83.90
70830;SHT30;58451;51.550;7.208;2024-01-15T05:14:31;2.16;83.92
70830;SHT30;58451;51.550;7.208;2024-01-15T05:16:02;2.16;83.90
70830;SHT30;58451;51.550;7.208;2024-01-15T05:17:34;2.17;83.92
70830;SHT30;58451;51.550;7.208;2024-01-15T05:19:08;2.17;83.90
70830;SHT30;58451;51.550;7.208;2024-01-15T05:20:39;2.18;83.90
70830;SHT30;58451;51.550;7.208;2024-01-15T05:22:11;2.17;83.90
70830;SHT30;58451;51.550;7.208;2024-01-15T05:23:42;2.18;83.95
70830;SHT30;58451;51.550;7.208;2024-01-15T05:25:13;2.17;83.97
70830;SHT30;58451;51.550;7.208;2024-01-15T05:26:44;2.17;83.90
70830;SHT30;58451;51.550;7.208;2024-01-15T05:28:16;2.17;83.92
70830;SHT30;58451;51.550;7.208;2024-01-15T05:29:48;2.17;83.93
70830;SHT30;58451;51.550;7.208;2024-01-15T05:31:19;2.17;83.92
70830;SHT30;58451;51.550;7.208;2024-01-15T05:32:50;2.17;83.88
70830;SHT30;58451;51.550;7.208;2024-01-15T05:34:21;2.16;83.90
70830;SHT30;58451;51.550;7.208;2024-01-15T05:35:53;2.16;83.90
70830;SHT30;58451;51.550;7.208;2024-01-15T05:37:24;2.18;83.95
70830;SHT30;58451;51.550;7.208;2024-01-15T05:38:55;2.19;84.00
70830;SHT30;58451;51.550;7.208;2024-01-15T05:40:27;2.18;83.93
70830;SHT30;58451;51.550;7.208;2024-01-15T05:41:58;2.17;83.83
70830;SHT30;58451;51.550;7.208;2024-01-15T05:43:31;2.18;83.90
70830;SHT30;58451;51.550;7.208;2024-01-15T05:45:02;2.17;83.82
70830;SHT30;58451;51.550;7.208;2024-01-15T05:46:35;2.18;83.80
70830;SHT30;58451;51.550;7.208;2024-01-15T05:48:06;2.17;83.80
70830;SHT30;58451;51.550;7.208;2024-01-15T05:49:38;2.17;83.80
70830;SHT30;58451;51.550;7.208;2024-01-15T05:51:09;2.17;83.82
70830;SHT30;58451;51.550;7.208;2024-01-15T05:52:41;2.18;83.88
70830;SHT30;58451;51.550;7.208;2024-01-15T05:54:12;2.19;83.90
70830;SHT30;58451;51.550;7.208;2024-01-15T05:55:44;2.19;83.88
70830;SHT30;58451;51.550;7.208;2024-01-15T05:57:15;2.17;83.80
70830;SHT30;58451;51.550;7.208;2024-01-15T05:58:46;2.16;83.77
70830;SHT30;58451;51.550;7.208;2024-01-15T06:00:18;2.17;83.82
70830;SHT30;58451;51.550;7.208;2024-01-15T06:01:49;2.18;83.82
70830;SHT30;58451;51.550;7.208;2024-01-15T06:03:22;2.18;83.82
70830;SHT30;58451;51.550;7.208;2024-01-15T06:04:53;2.18;83.80
70830;SHT30;58451;51.550;7.208;2024-01-15T06:06:24;2.17;83.78
70830;SHT30;58451;51.550;7.208;2024-01-15T06:07:56;2.17;83.77
70830;SHT30;58451;51.550;7.208;2024-01-15T06:09:27;2.17;83.70
70830;SHT30;58451;51.550;7.208;2024-01-15T06:10:59;2.14;83.68
70830;SHT30;58451;51.550;7.208;2024-01-15T06:12:32;2.12;83.62
70830;SHT30;58451;51.550;7.208;2024-01-15T06:14:04;2.14;83.67
70830;SHT30;58451;51.550;7.208;2024-01-15T06:15:36;2.14;83.68
70830;SHT30;58451;51.550;7.208;2024-01-15T06:17:08;2.11;83.62
70830;SHT30;58451;51.550;7.208;2024-01-15T06:18:39;2.11;83.63
70830;SHT30;58451;51.550;7.208;2024-01-15T06:20:12;2.12;83.70
70830;SHT30;58451;51.550;7.208;2024-01-15T06:21:43;2.12;83.70
70830;SHT30;58451;51.550;7.208;2024-01-15T06:23:15;2.10;83.68
70830;SHT30;58451;51.550;7.208;2024-01-15T06:24:49;2.10;83.70
70830;SHT30;58451;51.550;7.208;2024-01-15T06:26:20;2.11;83.72
70830;SHT30;58451;51.550;7.208;2024-01-15T06:27:51;2.09;83.70
70830;SHT30;58451;51.550;7.208;2024-01-15T06:29:25;2.11;83.70
70830;SHT30;58451;51.550;7.208;2024-01-15T06:30:58;2.11;83.70
70830;SHT30;58451;51.550;7.208;2024-01-15T06:32:29;2.12;83.73
70830;SHT30;58451;51.550;7.208;2024-01-15T06:34:01;2.14;83.78
70830;SHT30;58451;51.550;7.208;2024-01-15T06:35:32;2.16;83.80
70830;SHT30;58451;51.550;7.208;2024-01-15T06:37:05;2.16;83.82
70830;SHT30;58451;51.550;7.208;2024-01-15T06:38:36;2.17;83.80
70830;SHT30;58451;51.550;7.208;2024-01-15T06:40:08;2.17;83.78
70830;SHT30;58451;51.550;7.208;2024-01-15T06:41:39;2.17;83.73
70830;SHT30;58451;51.550;7.208;2024-01-15T06:43:14;2.16;83.72
70830;SHT30;58451;51.550;7.208;2024-01-15T06:44:48;2.16;83.72
70830;SHT30;58451;51.550;7.208;2024-01-15T06:46:20;2.17;83.80
70830;SHT30;58451;51.550;7.208;2024-01-15T06:47:53;2.17;83.75
70830;SHT30;58451;51.550;7.208;2024-01-15T06:49:24;2.18;83.75
70830;SHT30;58451;51.550;7.208;2024-01-15T06:50:55;2.18;83.75
70830;SHT30;58451;51.550;7.208;2024-01-15T06:52:27;2.19;83.72
70830;SHT30;58451;51.550;7.208;2024-01-15T06:53:58;2.19;83.73
70830;SHT30;58451;51.550;7.208;2024-01-15T06:55:29;2.19;83.80
70830;SHT30;58451;51.550;7.208;2024-01-15T06:57:00;2.19;83.77
70830;SHT30;58451;51.550;7.208;2024-01-15T06:58:32;2.21;83.77
70830;SHT30;58451;51.550;7.208;2024-01-15T07:00:03;2.22;83.80
70830;SHT30;58451;51.550;7.208;2024-01-15T07:01:38;2.23;83.82
70830;SHT30;58451;51.550;7.208;2024-01-15T07:03:09;2.25;83.82
70830;SHT30;58451;51.550;7.208;2024-01-15T07:04:41;2.25;83.82
70830;SHT30;58451;51.550;7.208;2024-01-15T07:06:14;2.25;83.80
70830;SHT30;58451;51.550;7.208;2024-01-15T07:07:45;2.27;83.82
70830;SHT30;58451;51.550;7.208;2024-01-15T07:09:18;2.27;83.77
70830;SHT30;58451;51.550;7.208;2024-01-15T07:10:49;2.26;83.67
70830;SHT30;58451;51.550;7.208;2024-01-15T07:12:20;2.25;83.60
70830;SHT30;58451;51.550;7.208;2024-01-15T07:13:51;2.26;83.62
70830;SHT30;58451;51.550;7.208;2024-01-15T07:15:22;2.28;83.63
70830;SHT30;58451;51.550;7.208;2024-01-15T07:16:53;2.28;83.63
70830;SHT30;58451;51.550;7.208;2024-01-15T07:18:25;2.30;83.62
70830;SHT30;58451;51.550;7.208;2024-01-15T07:19:56;2.30;83.57
70830;SHT30;58451;51.550;7.208;2024-01-15T07:21:28;2.32;83.53
70830;SHT30;58451;51.550;7.208;2024-01-15T07:22:59;2.32;83.50
70830;SHT30;58451;51.550;7.208;2024-01-15T07:24:30;2.35;83.52
70830;SHT30;58451;51.550;7.208;2024-01-15T07:26:01;2.35;83.50
70830;SHT30;58451;51.550;7.208;2024-01-15T07:27:33;2.37;83.55
70830;SHT30;58451;51.550;7.208;2024-01-15T07:29:04;2.37;83.43
70830;SHT30;58451;51.550;7.208;2024-01-15T07:30:35;2.37;83.42
70830;SHT30;58451;51.550;7.208;2024-01-15T07:32:09;2.38;83.22
70830;SHT30;58451;51.550;7.208;2024-01-15T07:33:40;2.38;83.18
70830;SHT30;58451;51.550;7.208;2024-01-15T07:35:13;2.38;83.17
70830;SHT30;58451;51.550;7.208;2024-01-15T07:36:46;2.39;83.03
70830;SHT30;58451;51.550;7.208;2024-01-15T07:38:17;2.40;82.97
70830;SHT30;58451;51.550;7.208;2024-01-15T07:39:49;2.42;83.07
70830;SHT30;58451;51.550;7.208;2024-01-15T07:41:20;2.43;83.07
70830;SHT30;58451;51.550;7.208;2024-01-15T07:42:51;2.45;83.12
70830;SHT30;58451;51.550;7.208;2024-01-15T07:44:23;2.46;83.20
70830;SHT30;58451;51.550;7.208;2024-01-15T07:45:54;2.46;83.15
70830;SHT30;58451;51.550;7.208;2024-01-15T07:47:25;2.46;83.00
70830;SHT30;58451;51.550;7.208;2024-01-15T07:48:56;2.47;83.18
70830;SHT30;58451;51.550;7.208;2024-01-15T07:50:28;2.48;83.13
70830;SHT30;58451;51.550;7.208;2024-01-15T07:51:59;2.45;83.03
70830;SHT30;58451;51.550;7.208;2024-01-15T07:53:31;2.46;83.10
70830;SHT30;58451;51.550;7.208;2024-01-15T07:55:02;2.46;83.08
70830;SHT30;58451;51.550;7.208;2024-01-15T07:58:28;2.44;82.92
70830;SHT30;58451;51.550;7.208;2024-01-15T08:00:00;2.44;83.00
70830;SHT30;58451;51.550;7.208;2024-01-15T08:01:35;2.43;83.03
70830;SHT30;58451;51.550;7.208;2024-01-15T08:03:08;2.42;83.02
70830;SHT30;58451;51.550;7.208;2024-01-15T08:04:39;2.43;83.02
70830;SHT30;58451;51.550;7.208;2024-01-15T08:06:11;2.42;83.08
70830;SHT30;58451;51.550;7.208;2024-01-15T08:07:43;2.41;83.10
70830;SHT30;58451;51.550;7.208;2024-01-15T08:09:14;2.41;83.10
70830;SHT30;58451;51.550;7.208;2024-01-15T08:10:45;2.39;83.13
70830;SHT30;58451;51.550;7.208;2024-01-15T08:12:17;2.40;83.20
70830;SHT30;58451;51.550;7.208;2024-01-15T08:13:49;2.39;83.22
70830;SHT30;58451;51.550;7.208;2024-01-15T08:15:20;2.37;83.25
70830;SHT30;58451;51.550;7.208;2024-01-15T08:16:52;2.34;83.32
70830;SHT30;58451;51.550;7.208;2024-01-15T08:18:23;2.32;83.35
70830;SHT30;58451;51.550;7.208;2024-01-15T08:19:54;2.28;83.43
70830;SHT30;58451;51.550;7.208;2024-01-15T08:21:25;2.24;83.50
70830;SHT30;58451;51.550;7.208;2024-01-15T08:23:00;2.23;83.57
70830;SHT30;58451;51.550;7.208;2024-01-15T08:24:32;2.18;83.63
70830;SHT30;58451;51.550;7.208;2024-01-15T08:26:03;2.16;83.73
70830;SHT30;58451;51.550;7.208;2024-01-15T08:27:34;2.12;83.75
70830;SHT30;58451;51.550;7.208;2024-01-15T08:29:05;2.07;83.83
70830;SHT30;58451;51.550;7.208;2024-01-15T08:30:37;2.03;83.80
70830;SHT30;58451;51.550;7.208;2024-01-15T08:32:08;1.98;83.83
70830;SHT30;58451;51.550;7.208;2024-01-15T08:33:44;1.92;83.93
70830;SHT30;58451;51.550;7.208;2024-01-15T08:35:19;1.88;84.03
70830;SHT30;58451;51.550;7.208;2024-01-15T08:36:53;1.84;84.10
70830;SHT30;58451;51.550;7.208;2024-01-15T08:38:25;1.81;84.33
70830;SHT30;58451;51.550;7.208;2024-01-15T08:39:56;1.79;84.48
70830;SHT30;58451;51.550;7.208;2024-01-15T08:41:27;1.79;84.55
70830;SHT30;58451;51.550;7.208;2024-01-15T08:43:00;1.80;84.53
70830;SHT30;58451;51.550;7.208;2024-01-15T08:44:32;1.82;84.42
70830;SHT30;58451;51.550;7.208;2024-01-15T08:46:03;1.84;84.48
70830;SHT30;58451;51.550;7.208;2024-01-15T08:47:35;1.88;84.45
70830;SHT30;58451;51.550;7.208;2024-01-15T08:49:07;1.89;84.50
70830;SHT30;58451;51.550;7.208;2024-01-15T08:50:38;1.91;84.62
70830;SHT30;58451;51.550;7.208;2024-01-15T08:52:09;1.92;84.62
70830;SHT30;58451;51.550;7.208;2024-01-15T08:53:40;1.93;84.63
70830;SHT30;58451;51.550;7.208;2024-01-15T08:55:12;1.90;84.82
70830;SHT30;58451;51.550;7.208;2024-01-15T08:56:43;1.91;84.88
70830;SHT30;58451;51.550;7.208;2024-01-15T08:58:15;1.92;84.80
70830;SHT30;58451;51.550;7.208;2024-01-15T08:59:46;1.92;84.70
70830;SHT30;58451;51.550;7.208;2024-01-15T09:01:18;1.92;84.73
70830;SHT30;58451;51.550;7.208;2024-01-15T09:02:49;1.93;84.75
70830;SHT30;58451;51.550;7.208;2024-01-15T09:04:21;1.93;84.73
70830;SHT30;58451;51.550;7.208;2024-01-15T09:05:52;1.93;84.75
70830;SHT30;58451;51.550;7.208;2024-01-15T09:07:23;1.93;84.75
70830;SHT30;58451;51.550;7.208;2024-01-15T09:08:57;1.94;84.77
70830;SHT30;58451;51.550;7.208;2024-01-15T09:10:28;1.94;84.80
70830;SHT30;58451;51.550;7.208;2024-01-15T09:12:00;1.94;84.80
70830;SHT30;58451;51.550;7.208;2024-01-15T09:13:31;1.94;84.80
70830;SHT30;58451;51.550;7.208;2024-01-15T09:15:03;1.94;84.80
70830;SHT30;58451;51.550;7.208;2024-01-15T09:16:35;1.94;84.83
70830;SHT30;58451;51.550;7.208;2024-01-15T09:18:06;1.93;84.90
70830;SHT30;58451;51.550;7.208;2024-01-15T09:19:39;1.89;84.90
70830;SHT30;58451;51.550;7.208;2024-01-15T09:21:10;1.90;84.90
70830;SHT30;58451;51.550;7.208;2024-01-15T09:22:42;1.90;84.90
70830;SHT30;58451;51.550;7.208;2024-01-15T09:24:13;1.88;84.90
70830;SHT30;58451;51.550;7.208;2024-01-15T09:25:45;1.86;84.90
70830;SHT30;58451;51.550;7.208;2024-01-15T09:27:16;1.86;84.88
70830;SHT30;58451;51.550;7.208;2024-01-15T09:28:47;1.86;84.87
70830;SHT30;58451;51.550;7.208;2024-01-15T09:30:18;1.85;84.87
70830;SHT30;58451;51.550;7.208;2024-01-15T09:31:49;1.85;84.82
70830;SHT30;58451;51.550;7.208;2024-01-15T09:33:21;1.83;84.85
70830;SHT30;58451;51.550;7.208;2024-01-15T09:34:52;1.81;84.90
70830;SHT30;58451;51.550;7.208;2024-01-15T09:36:23;1.81;84.90
70830;SHT30;58451;51.550;7.208;2024-01-15T09:37:56;1.83;84.83
70830;SHT30;58451;51.550;7.208;2024-01-15T09:39:27;1.84;84.82
70830;SHT30;58451;51.550;7.208;2024-01-15T09:40:58;1.85;84.87
70830;SHT30;58451;51.550;7.208;2024-01-15T09:42:29;1.85;84.88
70830;SHT30;58451;51.550;7.208;2024-01-15T09:44:02;1.85;84.90
70830;SHT30;58451;51.550;7.208;2024-01-15T09:45:34;1.85;84.90
70830;SHT30;58451;51.550;7.208;2024-01-15T09:47:05;1.86;84.90
70830;SHT30;58451;51.550;7.208;2024-01-15T09:48:37;1.87;84.90
70830;SHT30;58451;51.550;7.208;2024-01-15T09:50:10;1.89;84.83